Skip Navigation Links
NOAA logo - Click to go to the NOAA homepage
NOAA's National Weather Service
Alaska Aviation Weather Unit
  NWS logo - Click to go to the NWS homepage
Left Navbar Graphic     00 AKDT = 08 GMT

   
NOAA is celebrating 200 years of science, service, and stewardship. Visit the NOAA 200th celebration Web site to learn more.
USA.gov is the U.S. Government's official Web portal to all Federal, state and local government Web resources and services.
Facebook
NWS on Facebook

Important Change Regarding the AAWU Web Presence

 

Over the last several months, the AAWU has been working to navigate its webpages to a nationally supported server. Security, as well as other needs, have necessitated the change.  We have been given an extension for the site changeover while we diligently work at addressing feedback received. As of July 14, 2017, aawu.arh.noaa.gov will be discontinued. The new AAWU web address is weather.gov/aawu. It is now live and will run in-parallel with the old site until it is discontinued on July 14, 2017. Please continue to send any feedback or questions regarding the new webpages to nws.ar.aawu.webauthors@noaa.gov.  Thank you for your patience during this time of transition.
AAWU Home :: Display TAF Add Bookmark
TAF CYUB 101841Z 1019/1105 04006KT P6SM BKN090 PROB30 1102/1105 2SM
     BR BKN006
    RMK NXT FCST BY 110100Z=

METAR CYUB 240200Z 07004KT 6SM -RA SCT005 OVC030 07/07 A2985 RMK SC4SC4 SLP109= METAR CYUB 240300Z 08006KT 6SM -RA SCT007 OVC030 07/06 A2984 RMK SC4SC4 SLP107= METAR CYUB 240400Z 08005KT 3SM -RA BR OVC005 07/06 A2983 RMK ST8 SLP104= METAR CYUB 240500Z 09006KT 3SM -RA BR OVC006 06/06 A2982 RMK ST8 0.8/LAST OBS/NXT 241300UTC SLP100=
 Alaska TAF Map

NOAA's National Weather Service
Alaska Aviation Weather Unit
6930 Sand Lake Road
Anchorage, AK 99502-1845
Disclaimer
Credits
Glossary
Privacy Policy
About Us
Career Opportunities
Contact AAWU Internet Services Site last modified: April, 17th 2012